createdAt,value
2022-11-06T00:02:01.070Z,99448.47
2022-11-06T00:04:30.320Z,99444.06
2022-11-06T00:06:57.284Z,99444.19
2022-11-06T00:09:24.887Z,99445.78
2022-11-06T00:11:52.851Z,99441.56
2022-11-06T00:14:20.851Z,99437.94
2022-11-06T00:16:49.918Z,99433.66
2022-11-06T00:19:17.750Z,99428.22
2022-11-06T00:21:45.996Z,99428.34
2022-11-06T00:24:15.485Z,99420.59
2022-11-06T00:26:43.559Z,99419.63
2022-11-06T00:29:14.172Z,99413.56
2022-11-06T00:31:41.894Z,99408.38
2022-11-06T00:34:11.917Z,99404.16
2022-11-06T00:36:39.476Z,99397.25
2022-11-06T00:39:07.099Z,99395.63
2022-11-06T00:41:34.688Z,99380.00
2022-11-06T00:44:03.610Z,99380.91
2022-11-06T00:46:31.462Z,99377.34
2022-11-06T00:48:59.789Z,99371.38
2022-11-06T00:51:30.882Z,99376.59
2022-11-06T00:53:59.714Z,99368.13
2022-11-06T00:56:27.917Z,99382.75
2022-11-06T00:58:55.792Z,99379.19
2022-11-06T01:01:25.021Z,99376.47
2022-11-06T01:03:54.702Z,99385.22
2022-11-06T01:06:24.580Z,99379.50
2022-11-06T01:08:53.853Z,99386.44
2022-11-06T01:11:23.471Z,99380.44
2022-11-06T01:13:52.693Z,99387.38
2022-11-06T01:16:20.789Z,99388.47
2022-11-06T01:18:49.203Z,99377.16
2022-11-06T01:21:18.506Z,99400.66
2022-11-06T01:23:46.223Z,99401.50
2022-11-06T01:26:28.831Z,99398.03
2022-11-06T01:29:03.912Z,99388.50
2022-11-06T01:31:33.785Z,99393.69
2022-11-06T01:34:02.617Z,99391.22
2022-11-06T01:36:30.781Z,99391.25
2022-11-06T01:39:00.231Z,99387.88
2022-11-06T01:41:31.751Z,99381.88
2022-11-06T01:44:01.062Z,99376.75
2022-11-06T01:46:30.842Z,99366.25
2022-11-06T01:49:00.612Z,99365.31
2022-11-06T01:51:29.741Z,99373.00
2022-11-06T01:53:57.873Z,99377.56
2022-11-06T01:56:25.744Z,99372.34
2022-11-06T01:58:55.580Z,99376.72
2022-11-06T02:01:23.985Z,99369.94
2022-11-06T02:03:56.385Z,99372.75
2022-11-06T02:06:24.602Z,99371.88
2022-11-06T02:08:52.581Z,99370.16
2022-11-06T02:11:20.452Z,99371.00
2022-11-06T02:13:55.195Z,99366.66
2022-11-06T02:16:26.182Z,99364.00
2022-11-06T02:19:03.570Z,99349.28
2022-11-06T02:21:49.872Z,99352.75
2022-11-06T02:24:35.036Z,99357.94
2022-11-06T02:27:10.271Z,99349.38
2022-11-06T02:29:43.713Z,99350.13
2022-11-06T02:32:13.209Z,99351.16
2022-11-06T02:34:41.528Z,99342.38
2022-11-06T02:37:12.117Z,99336.22
2022-11-06T02:39:42.097Z,99330.97
2022-11-06T02:42:12.215Z,99330.09
2022-11-06T02:44:40.700Z,99337.94
2022-11-06T02:47:11.021Z,99333.50
2022-11-06T02:49:40.302Z,99323.97
2022-11-06T02:52:11.368Z,99329.22
2022-11-06T02:54:42.324Z,99338.84
2022-11-06T02:57:15.629Z,99346.69
2022-11-06T02:59:48.547Z,99347.53
2022-11-06T03:02:19.653Z,99337.09
2022-11-06T03:04:51.514Z,99324.22
2022-11-06T03:07:21.301Z,99334.56
2022-11-06T03:09:49.819Z,99328.50
2022-11-06T03:12:22.400Z,99328.50
2022-11-06T03:14:55.511Z,99325.13
2022-11-06T03:17:27.319Z,99329.31
2022-11-06T03:19:57.279Z,99324.91
2022-11-06T03:22:28.054Z,99330.88
2022-11-06T03:25:00.470Z,99327.47
2022-11-06T03:27:34.809Z,99324.91
2022-11-06T03:30:04.803Z,99320.47
2022-11-06T03:32:35.219Z,99317.13
2022-11-06T03:35:07.582Z,99320.38
2022-11-06T03:37:38.320Z,99303.00
2022-11-06T03:40:09.627Z,99310.94
2022-11-06T03:42:39.399Z,99308.19
2022-11-06T03:45:10.858Z,99314.25
2022-11-06T03:47:40.299Z,99313.50
2022-11-06T03:50:11.928Z,99311.78
2022-11-06T03:52:43.319Z,99302.16
2022-11-06T03:55:16.013Z,99290.13
2022-11-06T03:57:48.929Z,99286.00
2022-11-06T04:00:20.354Z,99279.91
2022-11-06T04:02:52.702Z,99284.34
2022-11-06T04:05:23.090Z,99284.28
2022-11-06T04:08:07.688Z,99280.94
2022-11-06T04:10:53.682Z,99284.41
2022-11-06T04:13:40.595Z,99289.09
2022-11-06T04:16:09.061Z,99294.59
2022-11-06T04:18:36.631Z,99308.50
2022-11-06T04:21:25.815Z,99314.50
2022-11-06T04:24:24.917Z,99320.50
2022-11-06T04:27:02.324Z,99323.03
2022-11-06T04:29:39.091Z,99322.19
2022-11-06T04:32:11.373Z,99320.38
2022-11-06T04:34:44.547Z,99300.44
2022-11-06T04:37:15.653Z,99304.72
2022-11-06T04:39:51.359Z,99312.59
2022-11-06T04:42:25.508Z,99317.72
2022-11-06T04:44:57.598Z,99320.38
2022-11-06T04:47:25.470Z,99327.25
2022-11-06T04:49:54.504Z,99314.19
2022-11-06T04:52:24.603Z,99315.91
2022-11-06T04:54:52.833Z,99319.53
2022-11-06T04:57:20.423Z,99317.75
2022-11-06T04:59:48.027Z,99317.78
2022-11-06T05:02:17.068Z,99318.72
2022-11-06T05:04:45.625Z,99314.34
2022-11-06T05:07:14.135Z,99302.28
2022-11-06T05:09:41.913Z,99301.38
2022-11-06T05:12:09.822Z,99311.88
2022-11-06T05:14:37.518Z,99299.72
2022-11-06T05:17:05.139Z,99302.44
2022-11-06T05:19:34.204Z,99294.72
2022-11-06T05:22:19.431Z,99295.38
2022-11-06T05:24:47.025Z,99286.84
2022-11-06T05:27:14.612Z,99284.47
2022-11-06T05:29:42.293Z,99294.03
2022-11-06T05:32:09.856Z,99293.94
2022-11-06T05:34:38.841Z,99287.84
2022-11-06T05:37:06.410Z,99290.50
2022-11-06T05:39:37.736Z,99285.25
2022-11-06T05:42:08.169Z,99273.28
2022-11-06T05:44:35.925Z,99262.91
2022-11-06T05:47:03.516Z,99261.16
2022-11-06T05:49:31.109Z,99258.53
2022-11-06T05:52:00.035Z,99251.03
2022-11-06T05:54:27.808Z,99256.44
2022-11-06T05:56:55.581Z,99252.22
2022-11-06T05:59:23.156Z,99263.44
2022-11-06T06:01:50.773Z,99266.94
2022-11-06T06:04:18.478Z,99253.00
2022-11-06T06:06:46.139Z,99252.09
2022-11-06T06:09:15.094Z,99231.44
2022-11-06T06:11:42.969Z,99231.44
2022-11-06T06:14:10.643Z,99233.16
2022-11-06T06:16:38.608Z,99225.38
2022-11-06T06:19:06.163Z,99216.69
2022-11-06T06:21:33.793Z,99206.50
2022-11-06T06:24:01.436Z,99190.72
2022-11-06T06:26:30.564Z,99190.72
2022-11-06T06:28:58.179Z,99184.78
2022-11-06T06:31:26.259Z,99180.66
2022-11-06T06:33:53.861Z,99178.69
2022-11-06T06:36:21.403Z,99173.63
2022-11-06T06:38:49.029Z,99166.03
2022-11-06T06:41:16.635Z,99178.16
2022-11-06T06:43:48.911Z,99183.38
2022-11-06T06:46:16.961Z,99179.03
2022-11-06T06:48:44.667Z,99179.03
2022-11-06T06:51:12.367Z,99178.97
2022-11-06T06:53:40.146Z,99186.16
2022-11-06T06:56:08.273Z,99188.78
2022-11-06T06:58:35.856Z,99186.94
2022-11-06T07:01:10.300Z,99187.19
2022-11-06T07:03:38.167Z,99188.13
2022-11-06T07:06:06.908Z,99191.69
2022-11-06T07:08:34.602Z,99193.44
2022-11-06T07:11:02.825Z,99191.69
2022-11-06T07:13:35.550Z,99184.72
2022-11-06T07:16:05.944Z,99192.59
2022-11-06T07:18:33.573Z,99194.22
2022-11-06T07:21:01.106Z,99198.78
2022-11-06T07:23:28.699Z,99203.09
2022-11-06T07:25:56.308Z,99201.56
2022-11-06T07:28:24.185Z,99195.56
2022-11-06T07:30:51.753Z,99198.16
2022-11-06T07:33:20.649Z,99181.69
2022-11-06T07:35:48.275Z,99201.66
2022-11-06T07:38:15.990Z,99204.28
2022-11-06T07:40:43.759Z,99207.75
2022-11-06T07:43:12.319Z,99211.84
2022-11-06T07:45:40.254Z,99218.66
2022-11-06T07:48:07.936Z,99211.50
2022-11-06T07:50:36.906Z,99224.31
2022-11-06T07:53:04.808Z,99222.84
2022-11-06T07:55:33.885Z,99217.53
2022-11-06T07:58:03.163Z,99217.41
2022-11-06T08:00:30.981Z,99224.31
2022-11-06T08:02:58.504Z,99213.06
2022-11-06T08:05:26.144Z,99191.66
2022-11-06T08:07:58.564Z,99215.56
2022-11-06T08:10:26.240Z,99211.22
2022-11-06T08:12:53.770Z,99212.88
2022-11-06T08:15:21.316Z,99203.28
2022-11-06T08:17:48.948Z,99207.59
2022-11-06T08:20:16.810Z,99205.06
2022-11-06T08:22:44.361Z,99205.06
2022-11-06T08:25:13.744Z,99202.44
2022-11-06T08:27:41.420Z,99197.78
2022-11-06T08:30:10.413Z,99196.78
2022-11-06T08:32:38.015Z,99190.91
2022-11-06T08:35:06.922Z,99188.28
2022-11-06T08:37:34.595Z,99177.00
2022-11-06T08:40:02.318Z,99167.41
2022-11-06T08:42:31.669Z,99163.19
2022-11-06T08:44:59.375Z,99164.09
2022-11-06T08:47:27.080Z,99155.31
2022-11-06T08:49:55.995Z,99154.47
2022-11-06T08:52:23.575Z,99156.22
2022-11-06T08:54:51.895Z,99160.28
2022-11-06T08:57:19.475Z,99158.50
2022-11-06T08:59:48.357Z,99157.34
2022-11-06T09:02:16.609Z,99156.41
2022-11-06T09:04:44.337Z,99142.25
2022-11-06T09:07:11.905Z,99137.16
2022-11-06T09:09:39.653Z,99132.78
2022-11-06T09:12:08.128Z,99132.78
2022-11-06T09:14:35.814Z,99127.19
2022-11-06T09:17:05.001Z,99134.97
2022-11-06T09:19:32.645Z,99128.13
2022-11-06T09:22:00.220Z,99126.25
2022-11-06T09:24:57.197Z,99121.78
2022-11-06T09:27:15.365Z,99107.13
2022-11-06T09:29:44.241Z,99110.25
2022-11-06T09:32:13.210Z,99110.44
2022-11-06T09:34:40.869Z,99103.25
2022-11-06T09:37:08.427Z,99085.88
2022-11-06T09:39:35.984Z,99089.94
2022-11-06T09:42:10.274Z,99087.97
2022-11-06T09:44:52.918Z,99093.25
2022-11-06T09:47:24.962Z,99098.13
2022-11-06T09:49:54.405Z,99086.03
2022-11-06T09:52:29.229Z,99083.63
2022-11-06T09:54:59.360Z,99074.91
2022-11-06T09:57:30.900Z,99072.91
2022-11-06T09:59:58.921Z,99061.13
2022-11-06T10:02:30.558Z,99057.50
2022-11-06T10:05:03.601Z,99059.13
2022-11-06T10:07:34.360Z,99051.03
2022-11-06T10:10:02.669Z,99045.59
2022-11-06T10:12:36.672Z,99053.28
2022-11-06T10:15:13.436Z,99053.97
2022-11-06T10:17:50.451Z,99060.78
2022-11-06T10:20:25.392Z,99062.81
2022-11-06T10:23:01.978Z,99057.13
2022-11-06T10:25:40.500Z,99058.75
2022-11-06T10:28:17.126Z,99050.06
2022-11-06T10:30:50.990Z,99043.56
2022-11-06T10:33:30.536Z,99041.44
2022-11-06T10:36:01.267Z,99035.22
2022-11-06T10:38:31.266Z,99038.56
2022-11-06T10:40:58.941Z,99042.25
2022-11-06T10:43:32.085Z,99023.56
2022-11-06T10:46:06.011Z,99015.38
2022-11-06T10:48:41.636Z,99008.13
2022-11-06T10:51:28.294Z,99012.50
2022-11-06T10:54:04.570Z,98999.97
2022-11-06T10:56:43.390Z,98998.13
2022-11-06T10:59:11.102Z,99002.09
2022-11-06T11:01:39.499Z,98989.75
2022-11-06T11:04:08.690Z,98986.78
2022-11-06T11:06:36.290Z,98985.91
2022-11-06T11:09:03.892Z,98988.78
2022-11-06T11:11:31.427Z,98983.28
2022-11-06T11:14:15.938Z,98964.56
2022-11-06T11:16:45.910Z,98960.13
2022-11-06T11:19:25.637Z,98954.38
2022-11-06T11:21:54.543Z,98948.88
2022-11-06T11:24:22.445Z,98935.97
2022-11-06T11:26:51.978Z,98926.78
2022-11-06T11:29:24.595Z,98930.56
2022-11-06T11:31:53.928Z,98915.31
2022-11-06T11:34:24.605Z,98911.94
2022-11-06T11:36:55.761Z,98917.28
2022-11-06T11:39:26.164Z,98905.16
2022-11-06T11:41:53.788Z,98891.38
2022-11-06T11:44:21.697Z,98891.63
2022-11-06T11:46:51.229Z,98890.38
2022-11-06T11:49:30.793Z,98875.81
2022-11-06T11:51:59.550Z,98879.25
2022-11-06T11:54:29.404Z,98874.84
2022-11-06T11:57:04.719Z,98872.94
2022-11-06T11:59:37.569Z,98858.09
2022-11-06T12:02:13.774Z,98847.09
2022-11-06T12:04:44.875Z,98843.44
2022-11-06T12:07:21.370Z,98835.47
2022-11-06T12:09:49.055Z,98835.72
2022-11-06T12:12:22.429Z,98840.03
2022-11-06T12:15:05.247Z,98839.97
2022-11-06T12:17:34.670Z,98843.13
2022-11-06T12:20:07.510Z,98831.47
2022-11-06T12:22:39.087Z,98818.78
2022-11-06T12:25:11.396Z,98818.50
2022-11-06T12:27:42.427Z,98819.75
2022-11-06T12:30:13.020Z,98799.13
2022-11-06T12:32:55.593Z,98788.41
2022-11-06T12:35:27.427Z,98775.06
2022-11-06T12:38:01.893Z,98773.97
2022-11-06T12:40:30.815Z,98771.13
2022-11-06T12:43:03.619Z,98771.41
2022-11-06T12:45:39.289Z,98759.19
2022-11-06T12:48:13.708Z,98755.50
2022-11-06T12:50:46.439Z,98757.97
2022-11-06T12:53:25.283Z,98770.00
2022-11-06T12:55:56.082Z,98751.34
2022-11-06T12:58:36.541Z,98740.88
2022-11-06T13:01:10.353Z,98737.53
2022-11-06T13:04:03.500Z,98725.75
2022-11-06T13:06:57.210Z,98739.00
2022-11-06T13:09:27.762Z,98741.19
2022-11-06T13:12:00.844Z,98736.84
2022-11-06T13:14:33.311Z,98727.94
2022-11-06T13:17:05.399Z,98741.59
2022-11-06T13:19:38.535Z,98742.44
2022-11-06T13:22:20.877Z,98744.03
2022-11-06T13:24:53.084Z,98723.31
2022-11-06T13:27:27.487Z,98717.09
2022-11-06T13:29:56.876Z,98725.34
2022-11-06T13:32:25.993Z,98714.72
2022-11-06T13:34:55.380Z,98714.81
2022-11-06T13:37:36.116Z,98704.72
2022-11-06T13:40:10.255Z,98697.91
2022-11-06T13:42:41.348Z,98691.72
2022-11-06T13:45:10.420Z,98681.47
2022-11-06T13:47:44.868Z,98666.84
2022-11-06T13:50:17.847Z,98678.56
2022-11-06T13:52:50.868Z,98660.38
2022-11-06T13:55:24.484Z,98672.88
2022-11-06T13:58:24.078Z,98676.66
2022-11-06T14:01:04.139Z,98690.94
2022-11-06T14:03:56.729Z,98688.31
2022-11-06T14:06:25.661Z,98692.13
2022-11-06T14:08:56.283Z,98683.09
2022-11-06T14:11:28.628Z,98691.56
2022-11-06T14:14:01.630Z,98688.72
2022-11-06T14:16:31.431Z,98694.69
2022-11-06T14:19:01.891Z,98691.63
2022-11-06T14:21:51.049Z,98678.13
2022-11-06T14:24:41.396Z,98667.81
2022-11-06T14:27:12.958Z,98668.66
2022-11-06T14:30:05.404Z,98680.75
2022-11-06T14:32:45.087Z,98681.03
2022-11-06T14:35:50.505Z,98669.38
2022-11-06T14:38:38.491Z,98666.25
2022-11-06T14:41:51.466Z,98673.69
2022-11-06T14:44:30.318Z,98667.00
2022-11-06T14:47:00.000Z,98653.78
2022-11-06T14:49:34.477Z,98662.72
2022-11-06T14:52:03.808Z,98667.41
2022-11-06T14:54:32.046Z,98649.38
2022-11-06T14:56:59.689Z,98657.03
2022-11-06T14:59:34.610Z,98651.09
2022-11-06T15:02:06.324Z,98652.28
2022-11-06T15:04:35.837Z,98646.91
2022-11-06T15:07:11.865Z,98647.03
2022-11-06T15:09:46.652Z,98641.56
2022-11-06T15:12:14.312Z,98649.38
2022-11-06T15:15:01.665Z,98661.22
2022-11-06T15:17:33.378Z,98652.69
2022-11-06T15:20:20.595Z,98635.09
2022-11-06T15:22:51.802Z,98632.47
2022-11-06T15:25:22.920Z,98625.38
2022-11-06T15:27:58.187Z,98629.56
2022-11-06T15:30:27.647Z,98642.25
2022-11-06T15:32:55.549Z,98649.59
2022-11-06T15:35:24.254Z,98642.50
2022-11-06T15:37:53.604Z,98658.25
2022-11-06T15:40:29.368Z,98644.81
2022-11-06T15:42:58.161Z,98652.28
2022-11-06T15:45:28.691Z,98652.22
2022-11-06T15:47:58.680Z,98652.56
2022-11-06T15:50:27.983Z,98647.63
2022-11-06T15:52:55.846Z,98629.38
2022-11-06T15:55:28.698Z,98632.47
2022-11-06T15:58:06.791Z,98637.66
2022-11-06T16:00:38.398Z,98616.13
2022-11-06T16:03:08.036Z,98617.88
2022-11-06T16:05:37.467Z,98618.03
2022-11-06T16:08:07.174Z,98623.94
2022-11-06T16:10:36.979Z,98621.50
2022-11-06T16:13:05.793Z,98644.34
2022-11-06T16:15:48.637Z,98632.78
2022-11-06T16:18:19.253Z,98628.66
2022-11-06T16:20:49.400Z,98639.75
2022-11-06T16:23:20.101Z,98633.66
2022-11-06T16:25:48.065Z,98622.22
2022-11-06T16:28:19.927Z,98628.97
2022-11-06T16:30:49.580Z,98626.56
2022-11-06T16:33:22.721Z,98620.66
2022-11-06T16:35:55.370Z,98635.41
2022-11-06T16:38:46.614Z,98639.69
2022-11-06T16:41:37.299Z,98645.84
2022-11-06T16:44:27.612Z,98624.31
2022-11-06T16:47:18.064Z,98625.63
2022-11-06T16:49:52.887Z,98623.22
2022-11-06T16:52:27.467Z,98625.97
2022-11-06T16:54:57.392Z,98616.31
2022-11-06T16:57:28.597Z,98619.00
2022-11-06T16:59:58.702Z,98623.16
2022-11-06T17:02:29.913Z,98619.00
2022-11-06T17:05:16.145Z,98609.28
2022-11-06T17:07:44.321Z,98610.16
2022-11-06T17:10:37.943Z,98613.75
2022-11-06T17:13:14.728Z,98604.03
2022-11-06T17:15:42.771Z,98585.13
2022-11-06T17:18:17.043Z,98588.28
2022-11-06T17:20:52.030Z,98607.66
2022-11-06T17:23:19.972Z,98606.06
2022-11-06T17:25:48.194Z,98607.78
2022-11-06T17:28:16.416Z,98587.84
2022-11-06T17:30:44.118Z,98574.84
2022-11-06T17:33:12.281Z,98585.28
2022-11-06T17:35:41.570Z,98579.03
2022-11-06T17:38:12.491Z,98580.47
2022-11-06T17:40:40.316Z,98577.06
2022-11-06T17:43:07.911Z,98579.09
2022-11-06T17:45:35.606Z,98572.88
2022-11-06T17:48:03.255Z,98577.78
2022-11-06T17:50:31.650Z,98576.16
2022-11-06T17:53:00.662Z,98569.06
2022-11-06T17:55:28.958Z,98576.22
2022-11-06T17:57:56.603Z,98580.03
2022-11-06T18:00:24.269Z,98593.78
2022-11-06T18:03:06.530Z,98600.44
2022-11-06T18:05:35.917Z,98600.75
2022-11-06T18:08:05.055Z,98617.81
2022-11-06T18:10:32.669Z,98606.66
2022-11-06T18:13:00.296Z,98601.94
2022-11-06T18:15:27.927Z,98598.31
2022-11-06T18:17:55.497Z,98593.94
2022-11-06T18:20:23.031Z,98594.44
2022-11-06T18:22:50.663Z,98598.31
2022-11-06T18:25:19.852Z,98604.84
2022-11-06T18:27:47.444Z,98611.84
2022-11-06T18:30:15.116Z,98604.50
2022-11-06T18:32:42.663Z,98596.28
2022-11-06T18:35:10.520Z,98613.28
2022-11-06T18:37:38.067Z,98610.66
2022-11-06T18:40:06.472Z,98614.81
2022-11-06T18:42:35.358Z,98589.81
2022-11-06T18:45:02.965Z,98612.13
2022-11-06T18:47:30.550Z,98611.25
2022-11-06T18:49:58.309Z,98606.94
2022-11-06T18:52:51.505Z,98609.69
2022-11-06T18:55:13.535Z,98595.91
2022-11-06T18:57:42.549Z,98618.34
2022-11-06T19:00:13.177Z,98623.53
2022-11-06T19:02:40.970Z,98614.75
2022-11-06T19:05:08.977Z,98618.16
2022-11-06T19:07:36.636Z,98629.84
2022-11-06T19:10:04.787Z,98631.16
2022-11-06T19:12:32.341Z,98646.13
2022-11-06T19:15:01.418Z,98641.53
2022-11-06T19:17:29.018Z,98644.16
2022-11-06T19:19:56.559Z,98644.81
2022-11-06T19:22:24.166Z,98642.56
2022-11-06T19:24:51.754Z,98640.88
2022-11-06T19:27:19.323Z,98651.50
2022-11-06T19:29:46.890Z,98636.19
2022-11-06T19:32:15.848Z,98639.84
2022-11-06T19:34:43.378Z,98633.75
2022-11-06T19:37:10.976Z,98635.06
2022-11-06T19:39:38.650Z,98646.47
2022-11-06T19:42:06.290Z,98643.97
2022-11-06T19:44:33.933Z,98642.63
2022-11-06T19:47:01.559Z,98649.78
2022-11-06T19:49:33.061Z,98626.78
2022-11-06T19:52:41.561Z,98635.19
2022-11-06T19:54:48.263Z,98636.06
2022-11-06T19:57:28.897Z,98618.19
2022-11-06T19:59:57.436Z,98625.63
2022-11-06T20:02:25.091Z,98599.03
2022-11-06T20:04:54.093Z,98611.66
2022-11-06T20:07:21.646Z,98627.50
2022-11-06T20:09:49.211Z,98626.84
2022-11-06T20:12:16.816Z,98639.41
2022-11-06T20:14:45.847Z,98634.94
2022-11-06T20:17:14.955Z,98646.25
2022-11-06T20:19:42.602Z,98641.16
2022-11-06T20:22:11.589Z,98645.50
2022-11-06T20:24:40.875Z,98624.78
2022-11-06T20:27:11.373Z,98654.66
2022-11-06T20:29:39.336Z,98659.00
2022-11-06T20:32:07.419Z,98666.78
2022-11-06T20:34:34.970Z,98666.50
2022-11-06T20:37:02.587Z,98657.81
2022-11-06T20:39:31.930Z,98653.84
2022-11-06T20:41:59.593Z,98652.28
2022-11-06T20:44:27.130Z,98670.31
2022-11-06T20:46:54.739Z,98647.09
2022-11-06T20:49:22.500Z,98661.84
2022-11-06T20:52:12.565Z,98663.69
2022-11-06T20:54:43.691Z,98662.78
2022-11-06T20:57:14.695Z,98656.91
2022-11-06T20:59:42.332Z,98674.13
2022-11-06T21:02:10.648Z,98684.56
2022-11-06T21:04:38.480Z,98689.97
2022-11-06T21:07:06.225Z,98686.19
2022-11-06T21:09:34.037Z,98688.50
2022-11-06T21:12:03.100Z,98690.75
2022-11-06T21:14:30.948Z,98694.72
2022-11-06T21:16:58.616Z,98699.06
2022-11-06T21:19:26.190Z,98697.66
2022-11-06T21:21:56.714Z,98700.56
2022-11-06T21:24:24.441Z,98689.22
2022-11-06T21:26:54.993Z,98696.84
2022-11-06T21:29:24.721Z,98701.44
2022-11-06T21:31:52.439Z,98699.66
2022-11-06T21:34:20.273Z,98695.38
2022-11-06T21:36:48.785Z,98694.59
2022-11-06T21:39:18.570Z,98697.16
2022-11-06T21:41:46.686Z,98685.75
2022-11-06T21:44:15.501Z,98694.47
2022-11-06T21:46:46.322Z,98705.50
2022-11-06T21:49:14.427Z,98705.13
2022-11-06T21:51:42.640Z,98708.88
2022-11-06T21:54:29.301Z,98706.50
2022-11-06T21:56:56.916Z,98712.81
2022-11-06T21:59:26.734Z,98710.06
2022-11-06T22:01:55.853Z,98705.19
2022-11-06T22:04:23.551Z,98711.78
2022-11-06T22:06:52.281Z,98711.44
2022-11-06T22:09:24.887Z,98724.53
2022-11-06T22:11:53.250Z,98726.53
2022-11-06T22:14:20.836Z,98690.03
2022-11-06T22:16:48.844Z,98724.44
2022-11-06T22:19:18.554Z,98705.00
2022-11-06T22:21:46.296Z,98721.75
2022-11-06T22:24:14.846Z,98733.84
2022-11-06T22:26:42.535Z,98733.13
2022-11-06T22:29:12.093Z,98736.28
2022-11-06T22:31:39.754Z,98722.75
2022-11-06T22:34:07.389Z,98738.44
2022-11-06T22:36:37.273Z,98740.09
2022-11-06T22:39:05.531Z,98742.66
2022-11-06T22:41:33.225Z,98745.00
2022-11-06T22:44:01.253Z,98738.56
2022-11-06T22:46:29.777Z,98746.38
2022-11-06T22:48:57.869Z,98745.59
2022-11-06T22:51:26.953Z,98761.75
2022-11-06T22:53:56.348Z,98736.19
2022-11-06T22:56:25.570Z,98748.09
2022-11-06T22:58:54.671Z,98744.19
2022-11-06T23:01:22.643Z,98771.34
2022-11-06T23:03:50.325Z,98764.44
2022-11-06T23:06:18.037Z,98739.94
2022-11-06T23:08:47.158Z,98773.91
2022-11-06T23:11:17.229Z,98762.47
2022-11-06T23:13:45.196Z,98768.59
2022-11-06T23:16:14.419Z,98784.22
2022-11-06T23:18:42.148Z,98784.00
2022-11-06T23:21:14.171Z,98782.22
2022-11-06T23:23:42.385Z,98792.63
2022-11-06T23:26:18.366Z,98777.44
2022-11-06T23:28:47.594Z,98783.56
2022-11-06T23:31:16.854Z,98777.63
2022-11-06T23:33:45.495Z,98795.03
2022-11-06T23:36:16.537Z,98792.34
2022-11-06T23:38:45.395Z,98796.09
2022-11-06T23:41:32.263Z,98788.16
2022-11-06T23:44:27.934Z,98798.72
2022-11-06T23:46:55.279Z,98800.50
2022-11-06T23:49:23.673Z,98773.66
2022-11-06T23:51:51.551Z,98799.13
2022-11-06T23:54:19.547Z,98800.03
2022-11-06T23:56:47.160Z,98808.13
2022-11-06T23:59:16.020Z,98812.94
